createdAt,value
2023-05-09T00:00:08.356Z,28.89
2023-05-09T00:01:08.388Z,28.62
2023-05-09T00:02:08.455Z,28.41
2023-05-09T00:03:08.494Z,31.04
2023-05-09T00:04:08.516Z,28.12
2023-05-09T00:05:08.522Z,29.60
2023-05-09T00:06:08.614Z,28.83
2023-05-09T00:07:08.556Z,26.39
2023-05-09T00:08:08.565Z,29.91
2023-05-09T00:09:08.622Z,29.33
2023-05-09T00:10:08.695Z,28.43
2023-05-09T00:11:08.666Z,29.56
2023-05-09T00:12:08.707Z,31.84
2023-05-09T00:13:08.768Z,29.30
2023-05-09T00:14:08.809Z,28.96
2023-05-09T00:15:08.784Z,31.85
2023-05-09T00:16:08.875Z,26.17
2023-05-09T00:17:08.858Z,25.30
2023-05-09T00:18:08.883Z,28.09
2023-05-09T00:19:08.905Z,27.61
2023-05-09T00:20:08.938Z,28.12
2023-05-09T00:21:08.944Z,28.93
2023-05-09T00:22:09.062Z,25.85
2023-05-09T00:23:09.015Z,28.16
2023-05-09T00:24:09.067Z,32.02
2023-05-09T00:25:09.057Z,32.18
2023-05-09T00:26:09.108Z,27.76
2023-05-09T00:27:09.120Z,30.41
2023-05-09T00:28:09.163Z,30.31
2023-05-09T00:29:09.166Z,31.46
2023-05-09T00:30:09.167Z,25.16
2023-05-09T00:31:09.208Z,28.35
2023-05-09T00:32:09.403Z,26.28
2023-05-09T00:33:09.286Z,27.24
2023-05-09T00:34:09.269Z,26.53
2023-05-09T00:35:09.304Z,30.23
2023-05-09T00:36:09.307Z,29.10
2023-05-09T00:37:09.358Z,28.03
2023-05-09T00:38:09.455Z,28.86
2023-05-09T00:39:09.370Z,26.89
2023-05-09T00:40:09.430Z,29.09
2023-05-09T00:41:09.475Z,29.57
2023-05-09T00:42:09.838Z,30.08
2023-05-09T00:43:09.508Z,25.99
2023-05-09T00:44:09.553Z,28.52
2023-05-09T00:45:09.573Z,27.44
2023-05-09T00:46:09.660Z,26.61
2023-05-09T00:47:09.637Z,32.77
2023-05-09T00:48:09.644Z,29.96
2023-05-09T00:49:09.677Z,28.64
2023-05-09T00:50:09.691Z,28.17
2023-05-09T00:51:09.733Z,28.61
2023-05-09T00:52:09.872Z,29.96
2023-05-09T00:53:09.772Z,32.93
2023-05-09T00:54:09.921Z,31.44
2023-05-09T00:55:09.831Z,25.77
2023-05-09T00:56:09.863Z,30.09
2023-05-09T00:57:09.913Z,27.32
2023-05-09T00:58:09.951Z,28.13
2023-05-09T00:59:09.976Z,28.48
2023-05-09T01:00:10.003Z,28.39
2023-05-09T01:01:10.028Z,28.52
2023-05-09T01:02:10.023Z,30.44
2023-05-09T01:03:10.123Z,29.20
2023-05-09T01:04:10.084Z,25.61
2023-05-09T01:05:10.118Z,30.81
2023-05-09T01:06:10.176Z,30.34
2023-05-09T01:07:10.193Z,27.53
2023-05-09T01:08:10.202Z,28.47
2023-05-09T01:09:10.268Z,31.50
2023-05-09T01:10:10.355Z,30.17
2023-05-09T01:11:10.270Z,31.72
2023-05-09T01:12:10.345Z,29.35
2023-05-09T01:13:10.399Z,29.71
2023-05-09T01:14:10.400Z,28.91
2023-05-09T01:15:10.417Z,30.02
2023-05-09T01:16:10.521Z,30.41
2023-05-09T01:17:10.494Z,31.95
2023-05-09T01:18:10.548Z,26.63
2023-05-09T01:19:10.537Z,29.61
2023-05-09T01:20:10.570Z,27.97
2023-05-09T01:21:10.568Z,27.39
2023-05-09T01:22:10.593Z,26.83
2023-05-09T01:23:10.640Z,31.31
2023-05-09T01:24:10.699Z,32.05
2023-05-09T01:25:10.712Z,28.49
2023-05-09T01:26:10.807Z,28.80
2023-05-09T01:27:10.767Z,29.06
2023-05-09T01:28:10.786Z,30.94
2023-05-09T01:29:10.824Z,29.74
2023-05-09T01:30:10.891Z,26.79
2023-05-09T01:31:10.880Z,31.03
2023-05-09T01:32:10.883Z,31.18
2023-05-09T01:33:10.983Z,29.64
2023-05-09T01:34:10.966Z,26.63
2023-05-09T01:35:10.959Z,30.44
2023-05-09T01:36:10.970Z,29.21
2023-05-09T01:37:11.036Z,28.86
2023-05-09T01:38:11.046Z,27.80
2023-05-09T01:39:11.064Z,31.84
2023-05-09T01:40:11.093Z,28.23
2023-05-09T01:41:11.117Z,30.19
2023-05-09T01:42:11.230Z,28.65
2023-05-09T01:43:11.180Z,31.18
2023-05-09T01:44:11.297Z,31.28
2023-05-09T01:45:11.270Z,29.72
2023-05-09T01:46:11.315Z,29.58
2023-05-09T01:47:11.323Z,29.46
2023-05-09T01:48:11.304Z,29.77
2023-05-09T01:49:11.331Z,31.77
2023-05-09T01:50:11.371Z,27.36
2023-05-09T01:51:11.417Z,31.53
2023-05-09T01:52:11.462Z,33.96
2023-05-09T01:53:11.450Z,30.68
2023-05-09T01:54:11.515Z,30.30
2023-05-09T01:55:11.619Z,28.85
2023-05-09T01:56:11.572Z,30.18
2023-05-09T01:57:11.590Z,30.87
2023-05-09T01:58:11.682Z,32.38
2023-05-09T01:59:11.640Z,28.76
2023-05-09T02:00:11.682Z,30.68
2023-05-09T02:01:11.713Z,26.26
2023-05-09T02:02:11.893Z,28.36
2023-05-09T02:03:11.812Z,32.75
2023-05-09T02:04:11.805Z,27.17
2023-05-09T02:05:12.128Z,31.13
2023-05-09T02:06:11.812Z,29.17
2023-05-09T02:07:11.896Z,27.29
2023-05-09T02:08:11.922Z,26.81
2023-05-09T02:09:11.940Z,33.84
2023-05-09T02:10:12.012Z,29.09
2023-05-09T02:11:12.037Z,33.21
2023-05-09T02:12:12.043Z,31.79
2023-05-09T02:13:12.090Z,33.64
2023-05-09T02:14:12.200Z,27.21
2023-05-09T02:15:12.329Z,34.24
2023-05-09T02:16:12.184Z,28.77
2023-05-09T02:17:12.197Z,29.80
2023-05-09T02:18:12.247Z,28.65
2023-05-09T02:19:12.276Z,31.83
2023-05-09T02:20:12.288Z,29.75
2023-05-09T02:21:12.391Z,31.44
2023-05-09T02:22:12.379Z,28.06
2023-05-09T02:23:12.378Z,28.01
2023-05-09T02:24:12.406Z,34.49
2023-05-09T02:25:12.594Z,32.04
2023-05-09T02:26:12.468Z,33.37
2023-05-09T02:27:12.480Z,29.26
2023-05-09T02:28:12.520Z,29.80
2023-05-09T02:29:12.549Z,32.58
2023-05-09T02:30:12.667Z,32.83
2023-05-09T02:31:12.596Z,27.54
2023-05-09T02:32:12.672Z,29.11
2023-05-09T02:33:12.766Z,28.23
2023-05-09T02:34:12.747Z,26.60
2023-05-09T02:35:12.863Z,26.58
2023-05-09T02:36:12.791Z,27.76
2023-05-09T02:37:12.823Z,31.10
2023-05-09T02:38:12.840Z,28.62
2023-05-09T02:39:12.867Z,27.61
2023-05-09T02:40:12.951Z,28.10
2023-05-09T02:41:12.973Z,31.40
2023-05-09T02:42:13.406Z,28.40
2023-05-09T02:43:13.028Z,27.32
2023-05-09T02:44:13.084Z,29.87
2023-05-09T02:45:13.375Z,30.89
2023-05-09T02:46:13.214Z,33.40
2023-05-09T02:47:13.173Z,30.86
2023-05-09T02:48:13.261Z,28.13
2023-05-09T02:49:22.792Z,30.75
2023-05-09T02:50:14.206Z,30.89
2023-05-09T02:51:13.221Z,31.76
2023-05-09T02:52:13.211Z,30.82
2023-05-09T02:53:13.211Z,31.37
2023-05-09T02:54:13.209Z,30.50
2023-05-09T02:55:13.331Z,33.41
2023-05-09T02:56:13.159Z,30.18
2023-05-09T02:57:13.404Z,31.53
2023-05-09T02:58:14.829Z,32.77
2023-05-09T02:59:13.159Z,31.25
2023-05-09T03:00:13.128Z,33.68
2023-05-09T03:01:13.125Z,30.87
2023-05-09T03:02:13.492Z,29.63
2023-05-09T03:03:13.228Z,28.64
2023-05-09T03:04:13.216Z,30.17
2023-05-09T03:05:13.528Z,30.02
2023-05-09T03:06:13.266Z,30.31
2023-05-09T03:07:13.290Z,29.85
2023-05-09T03:08:13.332Z,32.26
2023-05-09T03:09:13.435Z,33.48
2023-05-09T03:10:13.436Z,26.60
2023-05-09T03:11:13.439Z,30.96
2023-05-09T03:12:13.491Z,30.00
2023-05-09T03:13:13.661Z,29.93
2023-05-09T03:14:13.545Z,30.12
2023-05-09T03:15:13.951Z,27.00
2023-05-09T03:16:13.656Z,31.00
2023-05-09T03:17:13.667Z,27.66
2023-05-09T03:18:13.765Z,32.16
2023-05-09T03:19:13.726Z,32.94
2023-05-09T03:20:13.761Z,32.23
2023-05-09T03:21:13.779Z,29.71
2023-05-09T03:22:13.809Z,25.41
2023-05-09T03:23:13.868Z,28.21
2023-05-09T03:24:13.905Z,30.60
2023-05-09T03:25:14.191Z,29.80
2023-05-09T03:26:14.012Z,28.51
2023-05-09T03:27:14.403Z,30.98
2023-05-09T03:28:14.049Z,29.78
2023-05-09T03:29:14.116Z,29.60
2023-05-09T03:30:14.101Z,31.37
2023-05-09T03:31:14.212Z,29.29
2023-05-09T03:32:15.325Z,29.08
2023-05-09T03:33:14.249Z,30.16
2023-05-09T03:34:14.353Z,27.84
2023-05-09T03:35:14.477Z,30.44
2023-05-09T03:36:14.314Z,28.36
2023-05-09T03:37:14.385Z,31.55
2023-05-09T03:38:14.400Z,29.95
2023-05-09T03:39:14.458Z,34.37
2023-05-09T03:40:14.486Z,34.48
2023-05-09T03:41:14.542Z,30.35
2023-05-09T03:42:14.558Z,32.56
2023-05-09T03:43:14.572Z,29.19
2023-05-09T03:44:14.629Z,28.25
2023-05-09T03:45:14.755Z,29.05
2023-05-09T03:46:14.677Z,28.59
2023-05-09T03:47:14.904Z,28.92
2023-05-09T03:48:14.770Z,34.12
2023-05-09T03:49:14.824Z,33.10
2023-05-09T03:50:14.954Z,30.14
2023-05-09T03:51:14.887Z,31.37
2023-05-09T03:52:14.915Z,30.35
2023-05-09T03:53:14.954Z,28.72
2023-05-09T03:54:14.976Z,33.19
2023-05-09T03:55:15.165Z,29.30
2023-05-09T03:56:15.040Z,33.96
2023-05-09T03:57:15.431Z,32.50
2023-05-09T03:58:15.112Z,32.08
2023-05-09T03:59:15.162Z,31.93
2023-05-09T04:00:15.202Z,32.64
2023-05-09T04:01:15.262Z,35.20
2023-05-09T04:02:15.334Z,32.56
2023-05-09T04:03:15.401Z,34.07
2023-05-09T04:04:15.360Z,31.48
2023-05-09T04:05:15.627Z,34.94
2023-05-09T04:06:15.518Z,30.36
2023-05-09T04:07:15.920Z,34.30
2023-05-09T04:08:15.539Z,34.51
2023-05-09T04:09:15.538Z,32.76
2023-05-09T04:10:15.607Z,31.87
2023-05-09T04:11:15.618Z,32.22
2023-05-09T04:12:15.679Z,31.13
2023-05-09T04:13:15.687Z,31.84
2023-05-09T04:14:15.703Z,35.43
2023-05-09T04:15:15.964Z,33.65
2023-05-09T04:16:15.821Z,33.95
2023-05-09T04:17:15.834Z,36.58
2023-05-09T04:18:15.845Z,30.24
2023-05-09T04:19:16.518Z,35.62
2023-05-09T04:20:15.912Z,32.80
2023-05-09T04:21:15.936Z,34.18
2023-05-09T04:22:16.099Z,32.82
2023-05-09T04:23:16.042Z,37.12
2023-05-09T04:24:16.050Z,36.71
2023-05-09T04:25:16.394Z,34.54
2023-05-09T04:26:16.144Z,32.43
2023-05-09T04:27:16.149Z,35.14
2023-05-09T04:28:16.199Z,34.81
2023-05-09T04:29:16.242Z,36.12
2023-05-09T04:30:16.306Z,34.61
2023-05-09T04:31:16.465Z,32.39
2023-05-09T04:32:16.503Z,32.25
2023-05-09T04:33:16.364Z,39.07
2023-05-09T04:34:16.410Z,35.31
2023-05-09T04:35:19.008Z,35.28
2023-05-09T04:36:16.445Z,35.48
2023-05-09T04:37:16.446Z,35.29
2023-05-09T04:38:16.496Z,33.06
2023-05-09T04:39:16.411Z,37.20
2023-05-09T04:40:16.414Z,37.78
2023-05-09T04:41:16.389Z,35.56
2023-05-09T04:42:16.454Z,37.47
2023-05-09T04:43:16.364Z,37.97
2023-05-09T04:44:16.357Z,38.82
2023-05-09T04:45:16.691Z,37.13
2023-05-09T04:46:16.370Z,36.21
2023-05-09T04:47:16.339Z,34.19
2023-05-09T04:48:16.353Z,37.31
2023-05-09T04:49:16.943Z,37.53
2023-05-09T04:50:16.329Z,33.40
2023-05-09T04:51:16.322Z,37.65
2023-05-09T04:52:16.323Z,31.97
2023-05-09T04:53:16.459Z,35.60
2023-05-09T04:54:16.397Z,36.36
2023-05-09T04:55:16.535Z,33.31
2023-05-09T04:56:16.275Z,38.46
2023-05-09T04:57:18.488Z,39.48
2023-05-09T04:58:16.299Z,39.14
2023-05-09T04:59:16.253Z,38.16
2023-05-09T05:00:16.286Z,39.64
2023-05-09T05:01:16.250Z,38.91
2023-05-09T05:02:16.258Z,38.25
2023-05-09T05:03:16.259Z,35.73
2023-05-09T05:04:16.247Z,38.97
2023-05-09T05:05:16.271Z,36.32
2023-05-09T05:06:16.229Z,42.31
2023-05-09T05:07:16.221Z,40.10
2023-05-09T05:08:16.248Z,38.99
2023-05-09T05:09:16.233Z,38.49
2023-05-09T05:10:16.302Z,34.32
2023-05-09T05:11:16.209Z,36.91
2023-05-09T05:12:16.191Z,38.33
2023-05-09T05:13:16.222Z,38.70
2023-05-09T05:14:16.173Z,38.39
2023-05-09T05:15:16.351Z,37.61
2023-05-09T05:16:16.176Z,35.08
2023-05-09T05:17:16.151Z,38.45
2023-05-09T05:18:16.130Z,37.66
2023-05-09T05:19:16.110Z,37.23
2023-05-09T05:20:16.118Z,40.83
2023-05-09T05:21:16.123Z,38.29
2023-05-09T05:22:16.130Z,43.14
2023-05-09T05:23:16.129Z,83.46
2023-05-09T05:24:16.097Z,83.61
2023-05-09T05:25:16.306Z,94.44
2023-05-09T05:26:16.158Z,102.91
2023-05-09T05:27:16.121Z,91.44
2023-05-09T05:28:16.047Z,73.64
2023-05-09T05:29:16.081Z,63.51
2023-05-09T05:30:16.087Z,59.11
2023-05-09T05:31:16.119Z,58.41
2023-05-09T05:32:16.049Z,58.14
2023-05-09T05:33:16.052Z,58.30
2023-05-09T05:34:16.036Z,56.88
2023-05-09T05:35:16.279Z,60.10
2023-05-09T05:36:16.006Z,59.95
2023-05-09T05:37:16.011Z,60.52
2023-05-09T05:38:16.028Z,62.70
2023-05-09T05:39:15.988Z,65.83
2023-05-09T05:40:16.007Z,61.46
2023-05-09T05:41:15.997Z,64.57
2023-05-09T05:42:16.072Z,58.94
2023-05-09T05:43:16.477Z,55.39
2023-05-09T05:44:15.966Z,55.03
2023-05-09T05:45:16.356Z,57.40
2023-05-09T05:46:15.987Z,66.36
2023-05-09T05:47:15.940Z,77.30
2023-05-09T05:48:15.921Z,86.07
2023-05-09T05:49:15.917Z,87.49
2023-05-09T05:50:15.926Z,88.50
2023-05-09T05:51:15.943Z,88.88
2023-05-09T05:52:15.913Z,97.40
2023-05-09T05:53:15.981Z,100.40
2023-05-09T05:54:15.924Z,105.16
2023-05-09T05:55:16.235Z,114.34
2023-05-09T05:56:16.007Z,119.03
2023-05-09T05:57:16.054Z,122.73
2023-05-09T05:58:16.555Z,134.47
2023-05-09T05:59:16.139Z,138.77
2023-05-09T06:00:16.107Z,144.06
2023-05-09T06:01:16.106Z,147.09
2023-05-09T06:02:16.184Z,153.38
2023-05-09T06:03:16.535Z,153.89
2023-05-09T06:04:16.286Z,163.77
2023-05-09T06:05:16.477Z,170.76
2023-05-09T06:06:16.221Z,174.79
2023-05-09T06:07:16.200Z,178.06
2023-05-09T06:08:16.487Z,191.26
2023-05-09T06:09:16.220Z,196.88
2023-05-09T06:10:16.269Z,202.96
2023-05-09T06:11:16.282Z,213.57
2023-05-09T06:12:16.344Z,211.82
2023-05-09T06:13:16.504Z,217.57
2023-05-09T06:14:16.526Z,218.55
2023-05-09T06:15:16.802Z,226.15
2023-05-09T06:16:19.950Z,231.92
2023-05-09T06:17:16.660Z,232.36
2023-05-09T06:18:16.513Z,232.83
2023-05-09T06:19:16.517Z,236.62
2023-05-09T06:20:16.470Z,244.62
2023-05-09T06:21:16.498Z,258.97
2023-05-09T06:22:16.467Z,249.43
2023-05-09T06:23:16.475Z,250.00
2023-05-09T06:24:23.841Z,248.18
2023-05-09T06:25:17.505Z,248.42
2023-05-09T06:26:16.452Z,249.04
2023-05-09T06:27:16.433Z,251.25
2023-05-09T06:28:16.434Z,254.63
2023-05-09T06:29:16.419Z,259.24
2023-05-09T06:30:25.349Z,249.79
2023-05-09T06:31:17.446Z,250.09
2023-05-09T06:32:16.384Z,251.12
2023-05-09T06:33:16.411Z,255.14
2023-05-09T06:34:16.365Z,265.47
2023-05-09T06:35:16.534Z,269.61
2023-05-09T06:36:16.382Z,249.43
2023-05-09T06:37:16.367Z,247.01
2023-05-09T06:38:16.368Z,248.43
2023-05-09T06:39:16.434Z,249.26
2023-05-09T06:40:16.339Z,247.87
2023-05-09T06:41:16.357Z,249.01
2023-05-09T06:42:16.361Z,250.00
2023-05-09T06:43:16.484Z,246.67
2023-05-09T06:44:16.307Z,249.05
2023-05-09T06:45:16.732Z,250.00
2023-05-09T06:46:16.570Z,249.00
2023-05-09T06:47:16.466Z,247.00
2023-05-09T06:48:16.527Z,246.38
2023-05-09T06:49:16.537Z,247.76
2023-05-09T06:50:16.594Z,248.44
2023-05-09T06:51:16.621Z,250.00
2023-05-09T06:52:16.669Z,250.00
2023-05-09T06:53:16.756Z,246.68
2023-05-09T06:54:16.799Z,238.18
2023-05-09T06:55:17.006Z,237.26
2023-05-09T06:56:17.895Z,240.35
2023-05-09T06:57:17.042Z,237.05
2023-05-09T06:58:17.495Z,238.77
2023-05-09T06:59:17.117Z,242.54
2023-05-09T07:00:17.189Z,242.15
2023-05-09T07:01:17.275Z,243.26
2023-05-09T07:02:17.407Z,244.94
2023-05-09T07:03:17.378Z,249.83
2023-05-09T07:04:17.408Z,249.64
2023-05-09T07:05:17.719Z,248.77
2023-05-09T07:06:17.464Z,249.37
2023-05-09T07:07:17.498Z,247.67
2023-05-09T07:08:17.584Z,249.39
2023-05-09T07:09:17.603Z,249.73
2023-05-09T07:10:17.654Z,249.71
2023-05-09T07:11:17.696Z,248.38
2023-05-09T07:12:17.740Z,249.67
2023-05-09T07:13:17.827Z,249.47
2023-05-09T07:14:17.816Z,249.03
2023-05-09T07:15:25.931Z,250.00
2023-05-09T07:16:18.923Z,250.06
2023-05-09T07:17:23.264Z,250.61
2023-05-09T07:18:18.935Z,250.14
2023-05-09T07:19:17.808Z,250.31
2023-05-09T07:20:17.785Z,250.24
2023-05-09T07:21:17.816Z,251.33
2023-05-09T07:22:17.867Z,251.95
2023-05-09T07:23:17.809Z,249.91
2023-05-09T07:24:17.782Z,248.31
2023-05-09T07:25:17.792Z,246.32
2023-05-09T07:26:17.796Z,246.13
2023-05-09T07:27:17.865Z,246.29
2023-05-09T07:28:17.770Z,246.85
2023-05-09T07:29:17.736Z,246.12
2023-05-09T07:30:17.725Z,246.34
2023-05-09T07:31:17.786Z,246.84
2023-05-09T07:32:17.941Z,246.86
2023-05-09T07:33:17.812Z,249.47
2023-05-09T07:34:17.952Z,248.77
2023-05-09T07:35:17.916Z,248.72
2023-05-09T07:36:17.898Z,249.62
2023-05-09T07:37:17.906Z,248.87
2023-05-09T07:38:18.010Z,248.94
2023-05-09T07:39:17.997Z,249.06
2023-05-09T07:40:18.265Z,249.63
2023-05-09T07:41:18.047Z,248.93
2023-05-09T07:42:18.085Z,249.61
2023-05-09T07:43:18.076Z,246.78
2023-05-09T07:44:18.082Z,248.49
2023-05-09T07:45:19.013Z,249.93
2023-05-09T07:46:18.183Z,250.00
2023-05-09T07:47:18.217Z,250.00
2023-05-09T07:48:18.496Z,250.00
2023-05-09T07:49:18.257Z,248.05
2023-05-09T07:50:18.365Z,247.07
2023-05-09T07:51:18.296Z,241.33
2023-05-09T07:52:18.353Z,243.11
2023-05-09T07:53:18.389Z,241.34
2023-05-09T07:54:18.463Z,247.12
2023-05-09T07:55:18.612Z,245.06
2023-05-09T07:56:18.519Z,244.00
2023-05-09T07:57:18.548Z,247.04
2023-05-09T07:58:18.561Z,243.15
2023-05-09T07:59:18.651Z,239.20
2023-05-09T08:00:18.656Z,200.61
2023-05-09T08:01:18.716Z,186.00
2023-05-09T08:02:18.799Z,152.90
2023-05-09T08:03:19.006Z,134.89
2023-05-09T08:04:18.808Z,109.19
2023-05-09T08:05:18.800Z,96.13
2023-05-09T08:06:18.924Z,86.91
2023-05-09T08:07:18.858Z,77.14
2023-05-09T08:08:18.968Z,68.93
2023-05-09T08:09:18.910Z,62.32
2023-05-09T08:10:18.957Z,59.01
2023-05-09T08:11:18.996Z,58.68
2023-05-09T08:12:19.077Z,48.27
2023-05-09T08:13:19.147Z,44.56
2023-05-09T08:14:19.157Z,44.18
2023-05-09T08:15:19.194Z,39.00
2023-05-09T08:16:19.256Z,38.07
2023-05-09T08:17:19.245Z,33.64
2023-05-09T08:18:19.289Z,28.42
2023-05-09T08:19:19.291Z,54.77
2023-05-09T08:20:19.397Z,65.50
2023-05-09T08:21:22.069Z,79.64
2023-05-09T08:22:19.448Z,85.36
2023-05-09T08:23:19.390Z,81.65
2023-05-09T08:24:19.378Z,83.00
2023-05-09T08:25:19.339Z,86.23
2023-05-09T08:26:19.339Z,89.31
2023-05-09T08:27:19.361Z,88.89
2023-05-09T08:28:19.317Z,90.97
2023-05-09T08:29:19.320Z,92.99
2023-05-09T08:30:19.312Z,95.05
2023-05-09T08:31:19.357Z,97.91
2023-05-09T08:32:19.306Z,100.03
2023-05-09T08:33:19.303Z,99.25
2023-05-09T08:34:19.309Z,101.05
2023-05-09T08:35:19.262Z,103.37
2023-05-09T08:36:19.244Z,107.04
2023-05-09T08:37:19.278Z,109.13
2023-05-09T08:38:19.338Z,109.32
2023-05-09T08:39:19.522Z,113.74
2023-05-09T08:40:19.242Z,113.65
2023-05-09T08:41:19.247Z,115.34
2023-05-09T08:42:19.258Z,118.17
2023-05-09T08:43:19.238Z,118.90
2023-05-09T08:44:19.542Z,121.11
2023-05-09T08:45:19.210Z,122.79
2023-05-09T08:46:19.226Z,129.29
2023-05-09T08:47:19.250Z,131.41
2023-05-09T08:48:19.205Z,106.86
2023-05-09T08:49:19.537Z,112.52
2023-05-09T08:50:19.183Z,125.71
2023-05-09T08:51:19.160Z,119.94
2023-05-09T08:52:19.137Z,61.76
2023-05-09T08:53:19.146Z,100.83
2023-05-09T08:54:22.164Z,70.94
2023-05-09T08:55:19.117Z,71.71
2023-05-09T08:56:19.106Z,75.35
2023-05-09T08:57:19.157Z,73.37
2023-05-09T08:58:19.136Z,85.32
2023-05-09T08:59:19.155Z,87.78
2023-05-09T09:00:20.647Z,91.05
2023-05-09T09:01:19.125Z,96.98
2023-05-09T09:02:19.102Z,101.65
2023-05-09T09:03:19.068Z,103.61
2023-05-09T09:04:19.548Z,107.45
2023-05-09T09:05:34.632Z,109.40
2023-05-09T09:06:20.073Z,109.66
2023-05-09T09:07:19.052Z,110.31
2023-05-09T09:08:19.096Z,112.49
2023-05-09T09:09:19.544Z,114.07
2023-05-09T09:10:19.120Z,120.06
2023-05-09T09:11:19.024Z,119.91
2023-05-09T09:12:19.035Z,122.94
2023-05-09T09:13:19.106Z,126.14
2023-05-09T09:14:18.996Z,125.78
2023-05-09T09:15:18.996Z,105.63
2023-05-09T09:16:19.049Z,101.55
2023-05-09T09:17:19.086Z,102.53
2023-05-09T09:18:19.120Z,100.51
2023-05-09T09:19:19.547Z,111.78
2023-05-09T09:20:19.203Z,117.71
2023-05-09T09:21:19.278Z,121.29
2023-05-09T09:22:19.338Z,54.83
2023-05-09T09:23:19.357Z,22.29
2023-05-09T09:24:19.412Z,75.18
2023-05-09T09:25:19.499Z,37.20
2023-05-09T09:26:19.573Z,19.03
2023-05-09T09:27:19.536Z,10.22
2023-05-09T09:28:19.565Z,27.15
2023-05-09T09:29:19.593Z,73.01
2023-05-09T09:30:19.653Z,60.48
2023-05-09T09:31:19.712Z,47.50
2023-05-09T09:32:19.703Z,60.97
2023-05-09T09:33:19.694Z,65.11
2023-05-09T09:34:19.729Z,71.72
2023-05-09T09:35:19.715Z,79.95
2023-05-09T09:36:19.726Z,83.00
2023-05-09T09:37:19.784Z,88.29
2023-05-09T09:38:19.784Z,91.03
2023-05-09T09:39:19.812Z,92.83
2023-05-09T09:40:19.869Z,96.25
2023-05-09T09:41:19.908Z,100.80
2023-05-09T09:42:20.036Z,103.99
2023-05-09T09:43:19.994Z,108.65
2023-05-09T09:44:20.066Z,110.80
2023-05-09T09:45:20.159Z,115.62
2023-05-09T09:46:20.156Z,115.42
2023-05-09T09:47:20.139Z,134.48
2023-05-09T09:48:20.181Z,134.60
2023-05-09T09:49:20.228Z,130.03
2023-05-09T09:50:20.349Z,127.39
2023-05-09T09:51:20.317Z,128.57
2023-05-09T09:52:20.369Z,119.14
2023-05-09T09:53:20.392Z,121.47
2023-05-09T09:54:20.527Z,123.61
2023-05-09T09:55:20.472Z,116.53
2023-05-09T09:56:20.513Z,119.73
2023-05-09T09:57:20.554Z,121.73
2023-05-09T09:58:20.705Z,123.70
2023-05-09T09:59:20.677Z,124.08
2023-05-09T10:00:20.673Z,124.03
2023-05-09T10:01:20.829Z,124.69
2023-05-09T10:02:20.760Z,127.69
2023-05-09T10:03:20.898Z,129.58
2023-05-09T10:04:20.860Z,129.90
2023-05-09T10:05:20.874Z,134.46
2023-05-09T10:06:20.882Z,137.87
2023-05-09T10:07:20.941Z,138.00
2023-05-09T10:08:20.941Z,140.70
2023-05-09T10:09:21.041Z,143.41
2023-05-09T10:10:20.945Z,147.28
2023-05-09T10:11:20.996Z,149.11
2023-05-09T10:12:21.011Z,151.59
2023-05-09T10:13:21.121Z,152.87
2023-05-09T10:14:21.120Z,156.59
2023-05-09T10:15:21.031Z,159.29
2023-05-09T10:16:28.585Z,161.24
2023-05-09T10:17:22.188Z,161.40
2023-05-09T10:18:21.146Z,162.17
2023-05-09T10:19:21.066Z,163.71
2023-05-09T10:20:21.020Z,166.35
2023-05-09T10:21:21.057Z,172.19
2023-05-09T10:22:20.995Z,173.14
2023-05-09T10:23:21.014Z,175.11
2023-05-09T10:24:21.032Z,178.59
2023-05-09T10:25:21.013Z,178.57
2023-05-09T10:26:21.010Z,177.91
2023-05-09T10:27:21.007Z,174.81
2023-05-09T10:28:20.967Z,166.22
2023-05-09T10:29:21.004Z,149.47
2023-05-09T10:30:21.073Z,138.12
2023-05-09T10:31:21.018Z,120.31
2023-05-09T10:32:21.034Z,114.27
2023-05-09T10:33:21.113Z,113.82
2023-05-09T10:34:21.129Z,99.92
2023-05-09T10:35:21.152Z,103.33
2023-05-09T10:36:21.238Z,109.97
2023-05-09T10:37:21.256Z,76.29
2023-05-09T10:38:21.309Z,49.69
2023-05-09T10:39:21.327Z,66.65
2023-05-09T10:40:21.363Z,46.93
2023-05-09T10:41:21.406Z,65.93
2023-05-09T10:42:21.413Z,78.77
2023-05-09T10:43:21.452Z,84.78
2023-05-09T10:44:21.589Z,75.27
2023-05-09T10:45:21.553Z,48.80
2023-05-09T10:46:21.710Z,63.11
2023-05-09T10:47:21.741Z,77.72
2023-05-09T10:48:21.687Z,73.09
2023-05-09T10:49:21.766Z,57.96
2023-05-09T10:50:21.817Z,50.58
2023-05-09T10:51:21.843Z,47.68
2023-05-09T10:52:21.907Z,50.64
2023-05-09T10:53:21.954Z,58.53
2023-05-09T10:54:22.084Z,55.28
2023-05-09T10:55:22.074Z,55.63
2023-05-09T10:56:22.115Z,54.27
2023-05-09T10:57:22.172Z,53.00
2023-05-09T10:58:22.200Z,51.54
2023-05-09T10:59:22.259Z,47.55
2023-05-09T11:00:22.309Z,46.11
2023-05-09T11:01:22.368Z,45.63
2023-05-09T11:02:22.504Z,45.60
2023-05-09T11:03:22.472Z,43.19
2023-05-09T11:04:22.564Z,45.81
2023-05-09T11:05:22.456Z,44.03
2023-05-09T11:06:22.507Z,43.20
2023-05-09T11:07:22.520Z,40.56
2023-05-09T11:08:22.580Z,42.72
2023-05-09T11:09:22.615Z,43.16
2023-05-09T11:10:22.590Z,40.39
2023-05-09T11:11:22.632Z,42.30
2023-05-09T11:12:22.701Z,44.93
2023-05-09T11:13:22.766Z,48.13
2023-05-09T11:14:23.069Z,47.65
2023-05-09T11:15:22.674Z,49.75
2023-05-09T11:16:22.732Z,50.59
2023-05-09T11:17:22.900Z,53.19
2023-05-09T11:18:22.832Z,53.16
2023-05-09T11:19:22.754Z,53.76
2023-05-09T11:20:22.773Z,56.12
2023-05-09T11:21:22.809Z,57.30
2023-05-09T11:22:22.793Z,58.29
2023-05-09T11:23:22.811Z,58.67
2023-05-09T11:24:22.854Z,59.83
2023-05-09T11:25:22.890Z,60.08
2023-05-09T11:26:22.929Z,62.04
2023-05-09T11:27:22.916Z,62.76
2023-05-09T11:28:23.498Z,64.47
2023-05-09T11:29:23.066Z,63.41
2023-05-09T11:30:22.908Z,65.58
2023-05-09T11:31:22.962Z,66.18
2023-05-09T11:32:23.066Z,66.21
2023-05-09T11:33:23.001Z,67.44
2023-05-09T11:34:23.097Z,69.37
2023-05-09T11:35:23.080Z,68.89
2023-05-09T11:36:23.030Z,70.47
2023-05-09T11:37:23.107Z,71.86
2023-05-09T11:38:23.066Z,71.11
2023-05-09T11:39:23.064Z,72.88
2023-05-09T11:40:23.607Z,73.13
2023-05-09T11:41:23.184Z,73.01
2023-05-09T11:42:23.132Z,74.42
2023-05-09T11:43:23.138Z,72.48
2023-05-09T11:44:23.181Z,75.88
2023-05-09T11:45:23.580Z,75.41
2023-05-09T11:46:23.233Z,77.51
2023-05-09T11:47:23.260Z,77.47
2023-05-09T11:48:23.205Z,76.14
2023-05-09T11:49:23.212Z,78.18
2023-05-09T11:50:23.326Z,79.01
2023-05-09T11:51:23.297Z,76.95
2023-05-09T11:52:23.244Z,78.91
2023-05-09T11:53:23.247Z,80.66
2023-05-09T11:54:23.286Z,80.35
2023-05-09T11:55:23.644Z,80.94
2023-05-09T11:56:23.329Z,79.31
2023-05-09T11:57:23.296Z,80.14
2023-05-09T11:58:23.347Z,82.36
2023-05-09T11:59:23.368Z,80.42
2023-05-09T12:00:23.348Z,81.35
2023-05-09T12:01:23.363Z,81.83
2023-05-09T12:02:23.413Z,81.71
2023-05-09T12:03:23.474Z,83.70
2023-05-09T12:04:23.417Z,82.83
2023-05-09T12:05:23.455Z,84.68
2023-05-09T12:06:23.498Z,84.44
2023-05-09T12:07:23.450Z,84.89
2023-05-09T12:08:23.489Z,86.20
2023-05-09T12:09:23.490Z,84.04
2023-05-09T12:10:23.601Z,85.23
2023-05-09T12:11:23.542Z,86.96
2023-05-09T12:12:23.543Z,86.58
2023-05-09T12:13:23.632Z,86.61
2023-05-09T12:14:23.589Z,87.69
2023-05-09T12:15:23.587Z,87.57
2023-05-09T12:16:23.690Z,86.10
2023-05-09T12:17:23.705Z,88.37
2023-05-09T12:18:23.663Z,88.23
2023-05-09T12:19:23.705Z,88.25
2023-05-09T12:20:24.097Z,86.96
2023-05-09T12:21:23.715Z,87.98
2023-05-09T12:22:23.794Z,87.29
2023-05-09T12:23:23.720Z,87.84
2023-05-09T12:24:23.755Z,88.02
2023-05-09T12:25:23.793Z,87.94
2023-05-09T12:26:23.763Z,88.65
2023-05-09T12:27:23.815Z,88.43
2023-05-09T12:28:23.869Z,87.99
2023-05-09T12:29:23.857Z,88.53
2023-05-09T12:30:23.894Z,88.84
2023-05-09T12:31:23.888Z,88.76
2023-05-09T12:32:23.969Z,88.45
2023-05-09T12:33:23.931Z,90.52
2023-05-09T12:34:23.969Z,88.58
2023-05-09T12:35:24.020Z,89.52
2023-05-09T12:36:23.981Z,90.31
2023-05-09T12:37:24.017Z,90.02
2023-05-09T12:38:24.104Z,88.77
2023-05-09T12:39:24.130Z,89.78
2023-05-09T12:40:24.061Z,89.92
2023-05-09T12:41:35.460Z,90.10
2023-05-09T12:42:25.086Z,90.22
2023-05-09T12:43:24.037Z,90.32
2023-05-09T12:44:24.069Z,90.23
2023-05-09T12:45:24.021Z,90.80